Jump to content

Ussuri

Members
  • Content count

    114
  • Joined

  • Last visited

Community Reputation

56 Нейтральная

About Ussuri

  • Rank
    Знаток

Дополнительная информация

  • Место в рейтинге
    1300
  • Конфигурация компьютера
    MS Windows 7 Ulimate 64-bit SP1 Intel Core i5-3570 CPU @ 3.40GHz, 16.0GB RAM, NVIDIA GeForce GTX 660

Profile Information

  • Gender
    Male
  • Location
    XHWV

Recent Profile Visitors

1522 profile views
  1. Ussuri

    Ил-76 визуальная модель

    Кто из знающих может подсказать, как подправить срабатывание сирены на взлётном режиме если угол стабилизатора меньше 4-5 градусов, что бы она срабатывала с угла 2-3 градуса? модель MONUMENTUM
  2. Не туда прописывал, это куда?
  3. Вальсируем!!!

  4. Благодарствую! Выручаете не то что наш ЦАИВВС! Спасибо
  5. Всех с наступающим! Поделитесь схемами польских портов EPMM и EPMB. Спасибо.
  6. Как в ASE вбить текущую погоду и если есть такая возможность то как и куда? для примера необходимо выставить METAR UECT который показывает 242130Z 19002MPS 9000 ///019/// M41/M45 Q1024 R19/09//60 RMK QFE733, но ASE само собой станций таких не знает и генерирует погоду с ближайших станций =UECT 242123Z 33303KT 10SM CLR M06/M09 A2988 , как быть, у меня не получается?
  7. «Сосед ест мясо, я капусту, а в среднем мы все едим голубцы»

    1. Lyafudre60

      Lyafudre60

      "Мясо вредно":)

    2. Kraftig

      Kraftig

      Россияне набивают животы макаронами с хлебом. Какое мясо?

  8. Приветствую! У кого есть схемы Монгольских портов? Буду благодарен.
  9. Высший пилотаж - запроситься у АТИСа !!!

  10. В отпуск не хочу, летать нравится, денег не надо !!!

  11. Ussuri

    Красота...

  12. "Не хватает на мясо - ешьте пирожки с ливером!" 

    1. Kraftig

      Kraftig

      Да какое там мясо и ливер? Очень дорого и недоступно большинству. Россияне набивают животы макаронами с хлебом.

    2. Aleck

      Aleck

      Qu’ils mangent de la brioche. :)

    3. Maxfactor

      Maxfactor

      С Ливермором...

  13. Не в обиду сказано, но затея шляпа Боярского ! Да по маршруту контроль , шел с Оленьи на Чкаловский, но как вошел в Мск всЁ! кабздец полный, да и 124.000 Чкл пропал. Оценка два! Мож нужно поднабрать навыков, не знаю , чисто моё мнение.
×